Flight Track Log - Related Links

Times and Time Zones

All times are in EDT time to prevent confusion due to time zone crossing. See the N43959 flight status page for this flight to view local times or setup timezone preferences in your user account.

Time Position Orientation Groundspeed Altitude Reporting Facility
EDT Latitude Longitude Course Direction KTS MPH feet Rate Location/Type
Fri 10:57:18 AM 42.7506 -73.8058 30° Northeast 71 82 800  Level Boston Center
Fri 10:57:48 AM 42.7611 -73.7975 30° Northeast 75 86 1,100 635 Climbing Boston Center
Fri 10:58:43 AM 42.7678 -73.7750 68° East 86 99 1,700 672 Climbing Boston Center
Fri 10:59:44 AM 42.7700 -73.7467 84° East 82 94 2,400 709 Climbing Boston Center
Fri 11:00:50 AM 42.7683 -73.7100 94° East 82 94 3,200 661 Climbing Boston Center
Fri 11:01:51 AM 42.7542 -73.6842 127° Southeast 100 115 3,800 541 Climbing Boston Center
Fri 11:02:52 AM 42.7292 -73.6697 157° South 105 121 4,300 496 Climbing Boston Center
Fri 11:03:52 AM 42.7067 -73.6467 143° Southeast 98 113 4,800 397 Climbing Boston Center
Fri 11:04:53 AM 42.6839 -73.6208 140° Southeast 106 122 5,100 148 Climbing Boston Center
Fri 11:05:54 AM 42.6592 -73.5892 137° Southeast 125 144 5,100  Level Boston Center
Fri 11:06:48 AM 42.6344 -73.5606 140° Southeast 127 146 5,100  Level Boston Center
Fri 11:07:49 AM 42.6078 -73.5375 148° Southeast 125 144 5,100  Level Boston Center
Fri 11:08:49 AM 42.5789 -73.5031 139° Southeast 125 144 5,100  Level Boston Center
Fri 11:09:50 AM 42.5500 -73.4744 144° Southeast 125 144 5,100 49 Level Boston Center
Fri 11:10:51 AM 42.5253 -73.4431 137° Southeast 123 142 5,200  Climbing Boston Center
Fri 11:11:51 AM 42.4964 -73.4117 141° Southeast 127 146 5,100  Descending Boston Center
Fri 11:12:52 AM 42.4694 -73.3831 142° Southeast 131 151 5,200  Climbing Boston Center
Fri 11:13:53 AM 42.4425 -73.3544 142° Southeast 129 148 5,100 -52 Descending Boston Center
Fri 11:14:47 AM 42.4178 -73.3258 139° Southeast 125 144 5,100 48 Level Boston Center
Fri 11:15:57 AM 42.3869 -73.2889 138° Southeast 125 144 5,200 288 Climbing Boston Center
Fri 11:16:52 AM 42.3661 -73.2661 141° Southeast 108 124 5,700 574 Climbing Boston Center
Fri 11:17:52 AM 42.3456 -73.2406 137° Southeast 100 115 6,300 522 Climbing Boston Center
Fri 11:18:47 AM 42.3269 -73.2153 135° Southeast 98 113 6,700 393 Climbing Boston Center
Fri 11:19:54 AM 42.3022 -73.1867 139° Southeast 102 117 7,100 188 Climbing Boston Center
Fri 11:20:55 AM 42.2772 -73.1639 146° Southeast 113 130 7,100 50 Level Boston Center
Fri 11:21:55 AM 42.2503 -73.1356 142° Southeast 119 137 7,200 -50 Climbing Boston Center
Fri 11:22:56 AM 42.2233 -73.1044 139° Southeast 125 144 7,000 -50 Descending Boston Center
Fri 11:23:56 AM 42.1964 -73.0792 145° Southeast 121 139 7,100 50 Climbing Boston Center
Fri 11:24:57 AM 42.1717 -73.0453 135° Southeast 126 145 7,100  Level Boston Center
Fri 11:25:58 AM 42.1425 -73.0142 142° Southeast 129 148 7,100  Level Boston Center
Fri 11:26:58 AM 42.1178 -72.9831 137° Southeast 126 145 7,100 -50 Level Boston Center
Fri 11:27:59 AM 42.0908 -72.9492 137° Southeast 124 143 7,000  Descending Boston Center
Fri 11:29:00 AM 42.0658 -72.9183 138° Southeast 122 140 7,100 50 Climbing Boston Center
Fri 11:30:00 AM 42.0411 -72.8872 137° Southeast 123 142 7,100  Level Boston Center
Fri 11:31:01 AM 42.0142 -72.8536 137° Southeast 126 145 7,100  Level Boston Center
Fri 11:32:08 AM 41.9850 -72.8172 137° Southeast 128 147 7,100  Level Boston Center
Fri 11:33:02 AM 41.9600 -72.7919 143° Southeast 129 148 7,100  Level Boston Center
Fri 11:33:57 AM 41.9353 -72.7639 140° Southeast 127 146 7,100 -55 Level Boston Center
Fri 11:34:52 AM 41.9122 -72.7358 138° Southeast 124 143 7,000 -49 Descending Boston Center
Fri 11:35:59 AM 41.8833 -72.7022 139° Southeast 122 140 7,000  Level Boston Center
Fri 11:36:59 AM 41.8561 -72.6714 140° Southeast 127 146 7,000 50 Level Boston Center
Fri 11:38:00 AM 41.8314 -72.6408 137° Southeast 124 143 7,100  Climbing Boston Center
Fri 11:39:01 AM 41.8064 -72.6072 135° Southeast 120 138 7,000  Descending Boston Center
Fri 11:40:02 AM 41.7792 -72.5792 142° Southeast 123 142 7,100 49 Climbing Boston Center
Fri 11:41:03 AM 41.7500 -72.5486 142° Southeast 125 144 7,100 -49 Level Boston Center
Fri 11:42:04 AM 41.7272 -72.5181 135° Southeast 120 138 7,000  Descending Boston Center
Fri 11:43:05 AM 41.7000 -72.4875 140° Southeast 119 137 7,100 -50 Climbing Boston Center
Fri 11:44:05 AM 41.6772 -72.4567 135° Southeast 120 138 6,900 -446 Descending Boston Center
Fri 11:45:06 AM 41.6500 -72.4233 138° Southeast 123 142 6,200 -689 Descending Boston Center
Fri 11:46:07 AM 41.6250 -72.3928 138° Southeast 126 145 5,500 -541 Descending Boston Center
Fri 11:47:08 AM 41.5981 -72.3622 140° Southeast 124 143 5,100 -300 Descending Boston Center
Fri 11:47:47 AM 41.5814 -72.3403 135° Southeast 126 145 5,000 -86 Descending Boston Center
Fri 11:48:18 AM 41.5689 -72.3264 140° Southeast 128 147 5,000  Level Boston Center
Fri 11:49:25 AM 41.5375 -72.2931 142° Southeast 123 142 5,000 -198 Level Boston Center
Fri 11:50:19 AM 41.5167 -72.2625 132° Southeast 123 142 4,600 -678 Descending Boston Center
Fri 11:51:20 AM 41.4894 -72.2350 143° Southeast 124 143 3,700 -934 Descending Boston Center
Fri 11:52:21 AM 41.4644 -72.2047 138° Southeast 117 135 2,700 -672 Descending Boston Center
Fri 11:53:16 AM 41.4414 -72.1769 138° Southeast 122 140 2,400 -327 Descending Boston Center

Login

Don't have an account? Register now (free) for customized features, flight alerts, and more!